sensor_id;sensor_type;location;lat;lon;timestamp;pressure;altitude;pressure_sealevel;temperature;humidity
67397;BME280;57728;50.448;18.824;2023-12-20T00:00:11;97297.38;;;6.67;64.21
67397;BME280;57728;50.448;18.824;2023-12-20T00:02:15;97281.78;;;6.63;63.89
67397;BME280;57728;50.448;18.824;2023-12-20T00:04:16;97313.53;;;6.93;63.57
67397;BME280;57728;50.448;18.824;2023-12-20T00:06:19;97319.31;;;6.96;63.58
67397;BME280;57728;50.448;18.824;2023-12-20T00:08:20;97307.22;;;6.99;63.78
67397;BME280;57728;50.448;18.824;2023-12-20T00:10:21;97300.16;;;6.98;63.54
67397;BME280;57728;50.448;18.824;2023-12-20T00:12:23;97311.72;;;7.05;63.32
67397;BME280;57728;50.448;18.824;2023-12-20T00:14:24;97305.03;;;7.08;63.39
67397;BME280;57728;50.448;18.824;2023-12-20T00:16:25;97279.88;;;6.88;63.31
67397;BME280;57728;50.448;18.824;2023-12-20T00:18:28;97303.75;;;7.10;63.36
67397;BME280;57728;50.448;18.824;2023-12-20T00:20:29;97279.41;;;6.92;63.43
67397;BME280;57728;50.448;18.824;2023-12-20T00:22:31;97310.06;;;7.04;63.32
67397;BME280;57728;50.448;18.824;2023-12-20T00:24:35;97302.91;;;7.10;63.24
67397;BME280;57728;50.448;18.824;2023-12-20T00:26:37;97310.00;;;7.11;63.41
67397;BME280;57728;50.448;18.824;2023-12-20T00:28:38;97317.06;;;7.12;63.53
67397;BME280;57728;50.448;18.824;2023-12-20T00:30:40;97298.72;;;6.95;63.52
67397;BME280;57728;50.448;18.824;2023-12-20T00:32:41;97324.38;;;7.11;63.74
67397;BME280;57728;50.448;18.824;2023-12-20T00:34:47;97312.41;;;7.00;63.88
67397;BME280;57728;50.448;18.824;2023-12-20T00:36:49;97318.88;;;6.99;63.84
67397;BME280;57728;50.448;18.824;2023-12-20T00:38:50;97325.03;;;7.06;63.99
67397;BME280;57728;50.448;18.824;2023-12-20T00:40:53;97286.63;;;6.79;64.04
67397;BME280;57728;50.448;18.824;2023-12-20T00:42:55;97221.69;;;6.42;64.07
67397;BME280;57728;50.448;18.824;2023-12-20T00:44:56;97316.16;;;6.99;64.31
67397;BME280;57728;50.448;18.824;2023-12-20T00:46:58;97264.69;;;6.69;64.73
67397;BME280;57728;50.448;18.824;2023-12-20T00:49:00;97278.72;;;6.78;64.76
67397;BME280;57728;50.448;18.824;2023-12-20T00:51:02;97272.47;;;6.77;65.10
67397;BME280;57728;50.448;18.824;2023-12-20T00:53:04;97276.47;;;6.75;65.27
67397;BME280;57728;50.448;18.824;2023-12-20T00:55:08;97270.22;;;6.74;65.38
67397;BME280;57728;50.448;18.824;2023-12-20T00:57:09;97276.19;;;6.83;65.47
67397;BME280;57728;50.448;18.824;2023-12-20T00:59:10;97205.75;;;6.34;65.55
67397;BME280;57728;50.448;18.824;2023-12-20T01:01:12;97259.88;;;6.71;65.66
67397;BME280;57728;50.448;18.824;2023-12-20T01:03:13;97271.22;;;6.80;65.70
67397;BME280;57728;50.448;18.824;2023-12-20T01:05:16;97263.19;;;6.73;65.62
67397;BME280;57728;50.448;18.824;2023-12-20T01:07:19;97254.16;;;6.79;65.61
67397;BME280;57728;50.448;18.824;2023-12-20T01:09:20;97250.41;;;6.80;65.65
67397;BME280;57728;50.448;18.824;2023-12-20T01:11:24;97257.44;;;6.81;65.64
67397;BME280;57728;50.448;18.824;2023-12-20T01:13:26;97261.81;;;6.82;65.61
67397;BME280;57728;50.448;18.824;2023-12-20T01:15:27;97257.53;;;6.75;65.54
67397;BME280;57728;50.448;18.824;2023-12-20T01:17:28;97272.28;;;6.79;65.46
67397;BME280;57728;50.448;18.824;2023-12-20T01:19:30;97280.31;;;6.85;65.50
67397;BME280;57728;50.448;18.824;2023-12-20T01:21:31;97264.59;;;6.76;65.41
67397;BME280;57728;50.448;18.824;2023-12-20T01:23:32;97241.53;;;6.73;65.48
67397;BME280;57728;50.448;18.824;2023-12-20T01:25:34;97245.75;;;6.87;65.46
67397;BME280;57728;50.448;18.824;2023-12-20T01:27:36;97237.69;;;6.81;65.29
67397;BME280;57728;50.448;18.824;2023-12-20T01:29:37;97253.41;;;6.91;65.45
67397;BME280;57728;50.448;18.824;2023-12-20T01:31:39;97190.97;;;6.55;65.35
67397;BME280;57728;50.448;18.824;2023-12-20T01:33:41;97251.50;;;6.91;65.68
67397;BME280;57728;50.448;18.824;2023-12-20T01:35:42;97245.88;;;6.93;65.65
67397;BME280;57728;50.448;18.824;2023-12-20T01:37:45;97261.69;;;6.96;65.94
67397;BME280;57728;50.448;18.824;2023-12-20T01:39:46;97252.47;;;6.97;65.88
67397;BME280;57728;50.448;18.824;2023-12-20T01:41:47;97241.75;;;6.90;66.05
67397;BME280;57728;50.448;18.824;2023-12-20T01:43:49;97273.09;;;6.98;66.04
67397;BME280;57728;50.448;18.824;2023-12-20T01:45:51;97268.81;;;6.90;66.26
67397;BME280;57728;50.448;18.824;2023-12-20T01:47:55;97290.31;;;7.03;66.53
67397;BME280;57728;50.448;18.824;2023-12-20T01:49:59;97248.97;;;6.96;66.68
67397;BME280;57728;50.448;18.824;2023-12-20T01:52:00;97225.31;;;6.92;66.63
67397;BME280;57728;50.448;18.824;2023-12-20T01:54:02;97196.66;;;6.84;66.87
67397;BME280;57728;50.448;18.824;2023-12-20T01:56:05;97212.56;;;7.11;66.97
67397;BME280;57728;50.448;18.824;2023-12-20T01:58:09;97231.78;;;7.21;67.05
67397;BME280;57728;50.448;18.824;2023-12-20T02:00:13;97204.19;;;7.12;67.08
67397;BME280;57728;50.448;18.824;2023-12-20T02:02:26;97195.72;;;7.09;67.07
67397;BME280;57728;50.448;18.824;2023-12-20T02:04:29;97225.97;;;7.36;67.05
67397;BME280;57728;50.448;18.824;2023-12-20T02:06:30;97228.19;;;7.39;67.18
67397;BME280;57728;50.448;18.824;2023-12-20T02:08:36;97228.66;;;7.36;67.17
67397;BME280;57728;50.448;18.824;2023-12-20T02:10:37;97218.06;;;7.34;67.20
67397;BME280;57728;50.448;18.824;2023-12-20T02:12:38;97178.78;;;7.13;67.14
67397;BME280;57728;50.448;18.824;2023-12-20T02:14:41;97205.09;;;7.25;67.33
67397;BME280;57728;50.448;18.824;2023-12-20T02:16:43;97211.22;;;7.32;67.37
67397;BME280;57728;50.448;18.824;2023-12-20T02:18:44;97210.66;;;7.30;67.40
67397;BME280;57728;50.448;18.824;2023-12-20T02:20:46;97181.00;;;7.04;67.50
67397;BME280;57728;50.448;18.824;2023-12-20T02:22:49;97212.44;;;7.05;67.52
67397;BME280;57728;50.448;18.824;2023-12-20T02:24:50;97221.09;;;6.96;67.80
67397;BME280;57728;50.448;18.824;2023-12-20T02:26:51;97236.03;;;6.98;68.13
67397;BME280;57728;50.448;18.824;2023-12-20T02:28:56;97182.03;;;6.73;68.20
67397;BME280;57728;50.448;18.824;2023-12-20T02:30:57;97195.03;;;6.83;68.50
67397;BME280;57728;50.448;18.824;2023-12-20T02:33:07;97186.97;;;6.76;68.73
67397;BME280;57728;50.448;18.824;2023-12-20T02:35:13;97206.44;;;6.85;69.02
67397;BME280;57728;50.448;18.824;2023-12-20T02:37:14;97172.63;;;6.57;69.31
67397;BME280;57728;50.448;18.824;2023-12-20T02:39:16;97214.69;;;6.71;69.81
67397;BME280;57728;50.448;18.824;2023-12-20T02:41:18;97212.31;;;6.63;70.25
67397;BME280;57728;50.448;18.824;2023-12-20T02:43:19;97182.63;;;6.38;70.65
67397;BME280;57728;50.448;18.824;2023-12-20T02:45:20;97208.31;;;6.47;71.16
67397;BME280;57728;50.448;18.824;2023-12-20T02:47:22;97187.13;;;6.26;71.47
67397;BME280;57728;50.448;18.824;2023-12-20T02:49:23;97201.25;;;6.28;71.81
67397;BME280;57728;50.448;18.824;2023-12-20T02:51:24;97197.78;;;6.20;71.98
67397;BME280;57728;50.448;18.824;2023-12-20T02:53:27;97205.50;;;6.17;72.48
67397;BME280;57728;50.448;18.824;2023-12-20T02:55:28;97201.59;;;6.13;72.54
67397;BME280;57728;50.448;18.824;2023-12-20T02:57:29;97201.22;;;6.09;72.76
67397;BME280;57728;50.448;18.824;2023-12-20T02:59:34;97192.16;;;5.97;73.05
67397;BME280;57728;50.448;18.824;2023-12-20T03:01:35;97205.69;;;5.97;73.30
67397;BME280;57728;50.448;18.824;2023-12-20T03:03:42;97171.59;;;5.71;73.44
67397;BME280;57728;50.448;18.824;2023-12-20T03:05:45;97132.16;;;5.44;73.75
67397;BME280;57728;50.448;18.824;2023-12-20T03:07:47;97196.47;;;5.79;74.03
67397;BME280;57728;50.448;18.824;2023-12-20T03:09:48;97178.72;;;5.65;74.26
67397;BME280;57728;50.448;18.824;2023-12-20T03:11:50;97186.53;;;5.73;74.91
67397;BME280;57728;50.448;18.824;2023-12-20T03:13:51;97173.75;;;5.62;75.33
67397;BME280;57728;50.448;18.824;2023-12-20T03:15:52;97189.28;;;5.66;75.50
67397;BME280;57728;50.448;18.824;2023-12-20T03:17:57;97182.47;;;5.64;75.78
67397;BME280;57728;50.448;18.824;2023-12-20T03:19:59;97183.53;;;5.63;76.13
67397;BME280;57728;50.448;18.824;2023-12-20T03:22:01;97132.94;;;5.26;75.93
67397;BME280;57728;50.448;18.824;2023-12-20T03:24:03;97178.63;;;5.53;76.13
67397;BME280;57728;50.448;18.824;2023-12-20T03:26:07;97175.06;;;5.53;76.26
67397;BME280;57728;50.448;18.824;2023-12-20T03:28:09;97178.44;;;5.48;76.46
67397;BME280;57728;50.448;18.824;2023-12-20T03:30:11;97177.00;;;5.45;76.69
67397;BME280;57728;50.448;18.824;2023-12-20T03:32:12;97176.41;;;5.43;76.90
67397;BME280;57728;50.448;18.824;2023-12-20T03:34:14;97174.72;;;5.42;77.26
67397;BME280;57728;50.448;18.824;2023-12-20T03:36:16;97165.63;;;5.37;77.40
67397;BME280;57728;50.448;18.824;2023-12-20T03:38:17;97162.13;;;5.36;77.42
67397;BME280;57728;50.448;18.824;2023-12-20T03:40:18;97151.38;;;5.29;77.68
67397;BME280;57728;50.448;18.824;2023-12-20T03:42:20;97115.22;;;5.05;77.96
67397;BME280;57728;50.448;18.824;2023-12-20T03:44:21;97168.13;;;5.38;78.06
67397;BME280;57728;50.448;18.824;2023-12-20T03:46:22;97142.06;;;5.25;78.44
67397;BME280;57728;50.448;18.824;2023-12-20T03:48:24;97170.81;;;5.38;78.35
67397;BME280;57728;50.448;18.824;2023-12-20T03:50:26;97143.72;;;5.26;78.48
67397;BME280;57728;50.448;18.824;2023-12-20T03:52:27;97171.44;;;5.40;78.35
67397;BME280;57728;50.448;18.824;2023-12-20T03:54:29;97153.03;;;5.30;78.32
67397;BME280;57728;50.448;18.824;2023-12-20T03:56:31;97153.41;;;5.34;78.36
67397;BME280;57728;50.448;18.824;2023-12-20T03:58:32;97158.16;;;5.39;78.50
67397;BME280;57728;50.448;18.824;2023-12-20T04:00:34;97141.84;;;5.27;78.41
67397;BME280;57728;50.448;18.824;2023-12-20T04:02:35;97169.34;;;5.42;78.37
67397;BME280;57728;50.448;18.824;2023-12-20T04:04:36;97162.50;;;5.40;78.41
67397;BME280;57728;50.448;18.824;2023-12-20T04:06:38;97173.66;;;5.50;78.43
67397;BME280;57728;50.448;18.824;2023-12-20T04:08:39;97175.28;;;5.51;78.41
67397;BME280;57728;50.448;18.824;2023-12-20T04:10:40;97167.19;;;5.51;78.38
67397;BME280;57728;50.448;18.824;2023-12-20T04:12:42;97172.38;;;5.53;78.40
67397;BME280;57728;50.448;18.824;2023-12-20T04:14:44;97173.25;;;5.46;78.42
67397;BME280;57728;50.448;18.824;2023-12-20T04:16:45;97177.84;;;5.46;78.26
67397;BME280;57728;50.448;18.824;2023-12-20T04:18:47;97168.75;;;5.40;78.12
67397;BME280;57728;50.448;18.824;2023-12-20T04:20:48;97177.19;;;5.50;78.25
67397;BME280;57728;50.448;18.824;2023-12-20T04:22:50;97146.97;;;5.35;78.00
67397;BME280;57728;50.448;18.824;2023-12-20T04:24:52;97170.72;;;5.51;78.15
67397;BME280;57728;50.448;18.824;2023-12-20T04:26:53;97185.28;;;5.50;78.00
67397;BME280;57728;50.448;18.824;2023-12-20T04:28:55;97181.75;;;5.50;77.76
67397;BME280;57728;50.448;18.824;2023-12-20T04:30:57;97183.59;;;5.49;77.94
67397;BME280;57728;50.448;18.824;2023-12-20T04:32:58;97165.81;;;5.42;77.80
67397;BME280;57728;50.448;18.824;2023-12-20T04:34:59;97168.56;;;5.35;77.79
67397;BME280;57728;50.448;18.824;2023-12-20T04:37:01;97178.88;;;5.45;77.89
67397;BME280;57728;50.448;18.824;2023-12-20T04:39:02;97168.06;;;5.45;77.90
67397;BME280;57728;50.448;18.824;2023-12-20T04:41:03;97171.59;;;5.45;77.96
67397;BME280;57728;50.448;18.824;2023-12-20T04:43:05;97171.59;;;5.45;77.98
67397;BME280;57728;50.448;18.824;2023-12-20T04:45:07;97139.56;;;5.24;78.12
67397;BME280;57728;50.448;18.824;2023-12-20T04:47:08;97175.78;;;5.41;78.18
67397;BME280;57728;50.448;18.824;2023-12-20T04:49:10;97165.41;;;5.38;78.20
67397;BME280;57728;50.448;18.824;2023-12-20T04:51:11;97139.56;;;5.24;78.39
67397;BME280;57728;50.448;18.824;2023-12-20T04:53:13;97159.22;;;5.38;78.46
67397;BME280;57728;50.448;18.824;2023-12-20T04:55:15;97166.69;;;5.36;78.25
67397;BME280;57728;50.448;18.824;2023-12-20T04:57:16;97167.69;;;5.41;78.33
67397;BME280;57728;50.448;18.824;2023-12-20T04:59:17;97173.06;;;5.41;78.22
67397;BME280;57728;50.448;18.824;2023-12-20T05:01:19;97156.53;;;5.31;78.15
67397;BME280;57728;50.448;18.824;2023-12-20T05:03:21;97170.38;;;5.41;78.43
67397;BME280;57728;50.448;18.824;2023-12-20T05:05:22;97171.81;;;5.44;78.37
67397;BME280;57728;50.448;18.824;2023-12-20T05:07:25;97145.16;;;5.29;78.40
67397;BME280;57728;50.448;18.824;2023-12-20T05:09:26;97166.41;;;5.44;78.50
67397;BME280;57728;50.448;18.824;2023-12-20T05:11:27;97153.59;;;5.39;78.43
67397;BME280;57728;50.448;18.824;2023-12-20T05:13:29;97159.16;;;5.44;78.65
67397;BME280;57728;50.448;18.824;2023-12-20T05:15:30;97120.91;;;5.22;78.56
67397;BME280;57728;50.448;18.824;2023-12-20T05:17:31;97139.69;;;5.36;78.86
67397;BME280;57728;50.448;18.824;2023-12-20T05:19:33;97141.13;;;5.38;79.06
67397;BME280;57728;50.448;18.824;2023-12-20T05:21:37;97163.06;;;5.48;79.09
67397;BME280;57728;50.448;18.824;2023-12-20T05:23:38;97164.72;;;5.49;79.00
67397;BME280;57728;50.448;18.824;2023-12-20T05:25:40;97145.22;;;5.47;79.02
67397;BME280;57728;50.448;18.824;2023-12-20T05:27:42;97157.84;;;5.54;78.97
67397;BME280;57728;50.448;18.824;2023-12-20T05:29:43;97156.78;;;5.55;78.98
67397;BME280;57728;50.448;18.824;2023-12-20T05:31:45;97154.09;;;5.55;79.14
67397;BME280;57728;50.448;18.824;2023-12-20T05:33:46;97151.38;;;5.55;79.21
67397;BME280;57728;50.448;18.824;2023-12-20T05:35:47;97148.69;;;5.55;79.14
67397;BME280;57728;50.448;18.824;2023-12-20T05:37:49;97152.22;;;5.55;79.28
67397;BME280;57728;50.448;18.824;2023-12-20T05:39:50;97152.22;;;5.55;79.22
67397;BME280;57728;50.448;18.824;2023-12-20T05:41:52;97138.59;;;5.43;79.24
67397;BME280;57728;50.448;18.824;2023-12-20T05:43:54;97130.34;;;5.38;79.47
67397;BME280;57728;50.448;18.824;2023-12-20T05:45:55;97147.84;;;5.54;79.51
67397;BME280;57728;50.448;18.824;2023-12-20T05:47:56;97155.94;;;5.54;79.50
67397;BME280;57728;50.448;18.824;2023-12-20T05:49:58;97156.78;;;5.55;79.48
67397;BME280;57728;50.448;18.824;2023-12-20T05:52:00;97150.53;;;5.54;79.40
67397;BME280;57728;50.448;18.824;2023-12-20T05:54:01;97126.03;;;5.30;79.28
67397;BME280;57728;50.448;18.824;2023-12-20T05:56:04;97137.97;;;5.41;79.34
67397;BME280;57728;50.448;18.824;2023-12-20T05:58:06;97107.78;;;5.26;79.30
67397;BME280;57728;50.448;18.824;2023-12-20T06:00:07;97152.31;;;5.42;79.11
67397;BME280;57728;50.448;18.824;2023-12-20T06:02:16;97125.09;;;5.18;79.13
67397;BME280;57728;50.448;18.824;2023-12-20T06:04:17;97128.16;;;5.22;79.05
67397;BME280;57728;50.448;18.824;2023-12-20T06:06:19;97164.38;;;5.39;79.40
67397;BME280;57728;50.448;18.824;2023-12-20T06:08:22;97108.38;;;5.03;79.35
67397;BME280;57728;50.448;18.824;2023-12-20T06:10:23;97154.47;;;5.33;79.38
67397;BME280;57728;50.448;18.824;2023-12-20T06:12:24;97133.41;;;5.16;79.42
67397;BME280;57728;50.448;18.824;2023-12-20T06:14:28;97156.81;;;5.23;79.63
67397;BME280;57728;50.448;18.824;2023-12-20T06:16:31;97146.72;;;5.11;79.67
67397;BME280;57728;50.448;18.824;2023-12-20T06:18:32;97166.59;;;5.17;79.88
67397;BME280;57728;50.448;18.824;2023-12-20T06:20:35;97125.69;;;4.88;80.06
67397;BME280;57728;50.448;18.824;2023-12-20T06:22:36;97169.31;;;5.10;79.93
67397;BME280;57728;50.448;18.824;2023-12-20T06:24:39;97142.88;;;4.94;80.06
67397;BME280;57728;50.448;18.824;2023-12-20T06:26:41;97166.69;;;5.04;80.39
67397;BME280;57728;50.448;18.824;2023-12-20T06:28:42;97165.63;;;5.05;80.28
67397;BME280;57728;50.448;18.824;2023-12-20T06:30:43;97161.94;;;4.99;80.52
67397;BME280;57728;50.448;18.824;2023-12-20T06:32:48;97172.69;;;5.06;80.56
67397;BME280;57728;50.448;18.824;2023-12-20T06:34:49;97168.75;;;5.02;80.63
67397;BME280;57728;50.448;18.824;2023-12-20T06:36:50;97151.41;;;4.91;80.78
67397;BME280;57728;50.448;18.824;2023-12-20T06:38:53;97160.31;;;4.91;80.77
67397;BME280;57728;50.448;18.824;2023-12-20T06:40:54;97153.31;;;4.84;81.02
67397;BME280;57728;50.448;18.824;2023-12-20T06:42:55;97161.22;;;4.78;81.08
67397;BME280;57728;50.448;18.824;2023-12-20T06:44:57;97155.63;;;4.73;81.34
67397;BME280;57728;50.448;18.824;2023-12-20T06:46:58;97182.38;;;4.81;81.89
67397;BME280;57728;50.448;18.824;2023-12-20T06:48:59;97171.19;;;4.78;82.02
67397;BME280;57728;50.448;18.824;2023-12-20T06:51:02;97155.28;;;4.63;82.23
67397;BME280;57728;50.448;18.824;2023-12-20T06:53:03;97160.25;;;4.66;82.56
67397;BME280;57728;50.448;18.824;2023-12-20T06:55:07;97173.56;;;4.61;82.63
67397;BME280;57728;50.448;18.824;2023-12-20T06:57:09;97181.38;;;4.69;82.75
67397;BME280;57728;50.448;18.824;2023-12-20T06:59:11;97179.75;;;4.68;82.88
67397;BME280;57728;50.448;18.824;2023-12-20T07:01:13;97172.53;;;4.55;83.04
67397;BME280;57728;50.448;18.824;2023-12-20T07:03:15;97180.19;;;4.58;83.27
67397;BME280;57728;50.448;18.824;2023-12-20T07:05:17;97168.41;;;4.53;83.42
67397;BME280;57728;50.448;18.824;2023-12-20T07:07:20;97185.13;;;4.68;83.43
67397;BME280;57728;50.448;18.824;2023-12-20T07:09:23;97193.63;;;4.65;83.47
67397;BME280;57728;50.448;18.824;2023-12-20T07:11:24;97185.53;;;4.65;83.58
67397;BME280;57728;50.448;18.824;2023-12-20T07:13:25;97182.84;;;4.65;83.65
67397;BME280;57728;50.448;18.824;2023-12-20T07:15:27;97187.19;;;4.66;83.75
67397;BME280;57728;50.448;18.824;2023-12-20T07:17:30;97191.34;;;4.69;83.97
67397;BME280;57728;50.448;18.824;2023-12-20T07:19:31;97202.53;;;4.72;84.10
67397;BME280;57728;50.448;18.824;2023-12-20T07:21:34;97192.56;;;4.73;83.92
67397;BME280;57728;50.448;18.824;2023-12-20T07:23:35;97190.47;;;4.75;84.11
67397;BME280;57728;50.448;18.824;2023-12-20T07:25:36;97194.63;;;4.77;83.95
67397;BME280;57728;50.448;18.824;2023-12-20T07:27:38;97209.75;;;4.78;84.34
67397;BME280;57728;50.448;18.824;2023-12-20T07:29:39;97194.19;;;4.80;84.06
67397;BME280;57728;50.448;18.824;2023-12-20T07:31:40;97196.66;;;4.82;84.22
67397;BME280;57728;50.448;18.824;2023-12-20T07:33:43;97186.53;;;4.77;84.30
67397;BME280;57728;50.448;18.824;2023-12-20T07:35:44;97194.63;;;4.77;84.16
67397;BME280;57728;50.448;18.824;2023-12-20T07:37:46;97183.44;;;4.74;84.05
67397;BME280;57728;50.448;18.824;2023-12-20T07:39:48;97167.09;;;4.62;84.09
67397;BME280;57728;50.448;18.824;2023-12-20T07:41:49;97203.94;;;4.81;84.10
67397;BME280;57728;50.448;18.824;2023-12-20T07:43:50;97211.22;;;4.81;84.18
67397;BME280;57728;50.448;18.824;2023-12-20T07:45:52;97196.66;;;4.82;84.43
67397;BME280;57728;50.448;18.824;2023-12-20T07:47:53;97169.56;;;4.63;84.19
67397;BME280;57728;50.448;18.824;2023-12-20T07:49:55;97202.69;;;4.84;84.30
67397;BME280;57728;50.448;18.824;2023-12-20T07:51:57;97202.69;;;4.84;84.38
67397;BME280;57728;50.448;18.824;2023-12-20T07:53:58;97203.94;;;4.81;84.51
67397;BME280;57728;50.448;18.824;2023-12-20T07:55:59;97196.66;;;4.82;84.55
67397;BME280;57728;50.448;18.824;2023-12-20T07:58:01;97182.59;;;4.73;84.59
67397;BME280;57728;50.448;18.824;2023-12-20T08:00:03;97198.31;;;4.90;84.60
67397;BME280;57728;50.448;18.824;2023-12-20T08:02:06;97197.88;;;4.93;84.59
67397;BME280;57728;50.448;18.824;2023-12-20T08:04:08;97197.06;;;4.92;84.55
67397;BME280;57728;50.448;18.824;2023-12-20T08:06:09;97201.19;;;4.95;84.37
67397;BME280;57728;50.448;18.824;2023-12-20T08:08:10;97205.72;;;5.01;84.24
67397;BME280;57728;50.448;18.824;2023-12-20T08:10:12;97200.91;;;5.03;84.23
67397;BME280;57728;50.448;18.824;2023-12-20T08:12:15;97186.25;;;4.92;84.22
67397;BME280;57728;50.448;18.824;2023-12-20T08:14:17;97205.28;;;5.04;84.18
67397;BME280;57728;50.448;18.824;2023-12-20T08:16:21;97198.84;;;5.05;84.12
67397;BME280;57728;50.448;18.824;2023-12-20T08:18:23;97190.75;;;5.05;83.93
67397;BME280;57728;50.448;18.824;2023-12-20T08:20:24;97200.66;;;5.11;83.96
67397;BME280;57728;50.448;18.824;2023-12-20T08:22:26;97192.97;;;5.15;83.96
67397;BME280;57728;50.448;18.824;2023-12-20T08:24:27;97155.16;;;4.90;83.70
67397;BME280;57728;50.448;18.824;2023-12-20T08:26:28;97198.97;;;5.17;83.80
67397;BME280;57728;50.448;18.824;2023-12-20T08:28:30;97198.59;;;5.13;83.55
67397;BME280;57728;50.448;18.824;2023-12-20T08:30:32;97201.91;;;5.15;83.60
67397;BME280;57728;50.448;18.824;2023-12-20T08:32:33;97201.91;;;5.15;83.83
67397;BME280;57728;50.448;18.824;2023-12-20T08:34:36;97218.72;;;5.18;83.87
67397;BME280;57728;50.448;18.824;2023-12-20T08:36:39;97209.19;;;5.15;83.66
67397;BME280;57728;50.448;18.824;2023-12-20T08:38:40;97194.91;;;5.08;83.66
67397;BME280;57728;50.448;18.824;2023-12-20T08:40:42;97196.16;;;5.05;83.85
67397;BME280;57728;50.448;18.824;2023-12-20T08:42:43;97211.47;;;5.11;83.79
67397;BME280;57728;50.448;18.824;2023-12-20T08:44:44;97201.72;;;5.10;83.81
67397;BME280;57728;50.448;18.824;2023-12-20T08:46:46;97206.06;;;5.11;83.73
67397;BME280;57728;50.448;18.824;2023-12-20T08:48:47;97209.81;;;5.10;83.89
67397;BME280;57728;50.448;18.824;2023-12-20T08:50:48;97211.25;;;5.13;84.22
67397;BME280;57728;50.448;18.824;2023-12-20T08:52:53;97115.94;;;4.55;83.86
67397;BME280;57728;50.448;18.824;2023-12-20T08:54:54;97211.03;;;5.14;84.09
67397;BME280;57728;50.448;18.824;2023-12-20T08:56:55;97202.38;;;5.06;83.89
67397;BME280;57728;50.448;18.824;2023-12-20T08:58:59;97213.13;;;5.12;83.91
67397;BME280;57728;50.448;18.824;2023-12-20T09:01:00;97213.72;;;5.14;84.23
67397;BME280;57728;50.448;18.824;2023-12-20T09:03:02;97198.19;;;5.10;84.14
67397;BME280;57728;50.448;18.824;2023-12-20T09:05:04;97215.81;;;5.12;84.14
67397;BME280;57728;50.448;18.824;2023-12-20T09:07:05;97212.72;;;5.09;84.05
67397;BME280;57728;50.448;18.824;2023-12-20T09:09:08;97197.38;;;5.09;83.82
67397;BME280;57728;50.448;18.824;2023-12-20T09:11:15;97206.94;;;5.05;83.90
67397;BME280;57728;50.448;18.824;2023-12-20T09:13:16;97208.19;;;5.03;83.77
67397;BME280;57728;50.448;18.824;2023-12-20T09:15:17;97213.38;;;5.04;83.77
67397;BME280;57728;50.448;18.824;2023-12-20T09:17:19;97221.47;;;5.04;83.80
67397;BME280;57728;50.448;18.824;2023-12-20T09:19:22;97201.97;;;5.02;84.00
67397;BME280;57728;50.448;18.824;2023-12-20T09:21:23;97208.78;;;5.05;83.99
67397;BME280;57728;50.448;18.824;2023-12-20T09:23:25;97133.94;;;4.55;83.92
67397;BME280;57728;50.448;18.824;2023-12-20T09:25:26;97206.72;;;5.07;83.84
67397;BME280;57728;50.448;18.824;2023-12-20T09:27:31;97159.78;;;4.76;83.90
67397;BME280;57728;50.448;18.824;2023-12-20T09:29:33;97194.13;;;4.94;83.80
67397;BME280;57728;50.448;18.824;2023-12-20T09:31:36;97203.63;;;5.03;83.98
67397;BME280;57728;50.448;18.824;2023-12-20T09:33:37;97193.09;;;4.95;84.11
67397;BME280;57728;50.448;18.824;2023-12-20T09:35:39;97194.09;;;5.01;83.96
67397;BME280;57728;50.448;18.824;2023-12-20T09:37:40;97191.78;;;5.04;84.07
67397;BME280;57728;50.448;18.824;2023-12-20T09:39:45;97203.25;;;4.99;83.92
67397;BME280;57728;50.448;18.824;2023-12-20T09:44:03;97198.28;;;4.96;84.21
67397;BME280;57728;50.448;18.824;2023-12-20T09:46:06;97187.72;;;4.95;84.11
67397;BME280;57728;50.448;18.824;2023-12-20T09:48:10;97187.44;;;5.03;84.33
67397;BME280;57728;50.448;18.824;2023-12-20T09:50:13;97190.34;;;5.02;84.17
67397;BME280;57728;50.448;18.824;2023-12-20T09:52:15;97192.00;;;5.03;84.33
67397;BME280;57728;50.448;18.824;2023-12-20T09:54:21;97174.22;;;4.95;84.12
67397;BME280;57728;50.448;18.824;2023-12-20T09:56:25;97169.22;;;4.92;84.29
67397;BME280;57728;50.448;18.824;2023-12-20T09:58:26;97194.50;;;5.04;84.54
67397;BME280;57728;50.448;18.824;2023-12-20T10:00:28;97200.09;;;5.03;84.38
67397;BME280;57728;50.448;18.824;2023-12-20T10:02:31;97197.19;;;5.04;84.18
67397;BME280;57728;50.448;18.824;2023-12-20T10:04:35;97199.69;;;4.99;84.04
67397;BME280;57728;50.448;18.824;2023-12-20T10:06:40;97195.59;;;4.90;84.33
67397;BME280;57728;50.448;18.824;2023-12-20T10:08:42;97130.41;;;4.61;84.21
67397;BME280;57728;50.448;18.824;2023-12-20T10:10:43;97192.66;;;4.98;84.32
67397;BME280;57728;50.448;18.824;2023-12-20T10:13:05;97189.97;;;4.98;84.21
67397;BME280;57728;50.448;18.824;2023-12-20T10:15:08;97178.75;;;4.94;84.23
67397;BME280;57728;50.448;18.824;2023-12-20T10:17:11;97163.91;;;4.78;84.25
67397;BME280;57728;50.448;18.824;2023-12-20T10:19:16;97180.03;;;4.92;84.28
67397;BME280;57728;50.448;18.824;2023-12-20T10:21:18;97207.22;;;4.90;84.37
67397;BME280;57728;50.448;18.824;2023-12-20T10:23:20;97184.59;;;4.91;84.42
67397;BME280;57728;50.448;18.824;2023-12-20T10:25:22;97182.94;;;4.90;84.36
67397;BME280;57728;50.448;18.824;2023-12-20T10:27:24;97160.59;;;4.76;84.40
67397;BME280;57728;50.448;18.824;2023-12-20T10:29:26;97180.25;;;4.90;84.36
67397;BME280;57728;50.448;18.824;2023-12-20T10:31:31;97183.34;;;4.94;84.39
67397;BME280;57728;50.448;18.824;2023-12-20T10:33:34;96983.25;;;3.69;84.29
67397;BME280;57728;50.448;18.824;2023-12-20T10:35:36;97183.78;;;4.91;84.57
67397;BME280;57728;50.448;18.824;2023-12-20T10:37:39;97180.03;;;4.92;84.41
67397;BME280;57728;50.448;18.824;2023-12-20T10:39:42;97182.13;;;4.90;84.71
67397;BME280;57728;50.448;18.824;2023-12-20T10:41:45;97056.22;;;4.06;84.61
67397;BME280;57728;50.448;18.824;2023-12-20T10:43:49;97181.72;;;4.86;84.50
67397;BME280;57728;50.448;18.824;2023-12-20T10:45:51;97157.31;;;4.74;84.34
67397;BME280;57728;50.448;18.824;2023-12-20T10:47:52;97188.13;;;4.92;84.67